Norton, KS

1:23 PM CDT on May 23, 2017 (GMT -0500)
by sebelius lake | | Change Station

Elev 2418 ft 39.83 °N, 99.97 °W | Updated 9 minutes ago

Overcast
Overcast
60.0 °F
Feels Like 60.0 °F
N
10.0
Wind Variable Wind from NNW
Gusts 22.0 mph

Today
High -- | Low -- °F
--% Chance of Precip.
Yesterday
High -- | Low -- °F
Precip. -- in
Pressure 29.97 in
Visibility 10.0 miles
Clouds Few 7000 ft
Dew Point 42 °F
Humidity 51%
Rainfall 0.00 in
Snow Depth Not available.
6:18 AM 8:55 PM
Waning Crescent, 6% visible
METAR KHLC 231753Z AUTO 34020G28KT 10SM FEW070 18/03 A3000 RMK AO2 PK WND 01029/1736 SLP149 6//// T01830033 10194 20072
Pressure 29.97 in
Visibility 10.0 miles
Clouds Few 7000 ft
Dew Point 42 °F
Humidity 51%
Rainfall 0.00 in
Snow Depth Not available.
6:18 AM 8:55 PM
Waning Crescent, 6% visible
METAR KHLC 231753Z AUTO 34020G28KT 10SM FEW070 18/03 A3000 RMK AO2 PK WND 01029/1736 SLP149 6//// T01830033 10194 20072

Get Severe Weather Alerts

Thanks for signing up!

Be on the lookout for a verification email in your inbox.

You'll start receiving the daily forecast at 6 AM.

×

10-Day Weather Forecast

Almanac

Astronomy

May. 23, 2017 Rise Set
Actual Time
Civil Twilight
Nautical Twilight
Astronomical Twilight
Moon
Length of Visible Light
Length of Day
Tomorrow will be .
, % of the Moon is Illuminated

Today's Extremes

State Highs State Lows

Community

WunderPhotos

Category 6

Welcome to Category 6. This is the collective home for Weather Underground's featured writeups by Dr. Jeff Masters (right), Bob Henson (left), Chris Burt, and other regular contributors.

Nearby

Air Quality

  Air Quality AQ Index Pollutant
Not available.

Snow Depth

Station Depth Elevation

Earthquake Activity

City Distance Mag. Time & Date
Minimum magnitude displayed is 2.5.

Coastal Water Temperatures

Place Temperature

Stations

Nearby Weather Stations

Station Location Temp. Windchill Dew Point Humidity Wind Precip. Elev Updated Type
                   

Watches & Warnings

There are currently no watches in effect.